• Join FlightAware (Why Join?)
  • Login
  • US Flag 
08:49AM EDT


 

Airport Tracker/Info


-or-


 

Live Flight TrackerFlight Track Log ✈ AVN10 ✈ 20-Sep-2013 ✈ NVVV / VLI - YSSY / SYD

Flight Track Log - Related Links

Times and Time Zones

All times are in EDT time to prevent confusion due to time zone crossing. See the AVN10 flight status page for this flight to view local times or setup timezone preferences in your user account.

Time Position Orientation Groundspeed Altitude Reporting Facility
EDT Latitude Longitude Course Direction KTS MPH feet Rate Location/Type
04:07PM -18.0122 167.9830 226° Southwest  Level FlightAware Approximate
04:08PM -18.0747 167.9155 226° Southwest  Level FlightAware Approximate
04:09PM -18.1372 167.8479 226° Southwest  Level FlightAware Approximate
04:10PM -18.1997 167.7803 226° Southwest  Level FlightAware Approximate
04:11PM -18.2621 167.7127 226° Southwest  Level FlightAware Approximate
04:12PM -18.3245 167.6450 226° Southwest  Level FlightAware Approximate
04:13PM -18.3869 167.5772 226° Southwest  Level FlightAware Approximate
04:14PM -18.4493 167.5094 226° Southwest  Level FlightAware Approximate
04:15PM -18.5116 167.4416 226° Southwest  Level FlightAware Approximate
04:16PM -18.5739 167.3737 226° Southwest  Level FlightAware Approximate
04:17PM -18.6362 167.3058 226° Southwest  Level FlightAware Approximate
04:18PM -18.6985 167.2378 226° Southwest  Level FlightAware Approximate
04:19PM -18.7607 167.1698 226° Southwest  Level FlightAware Approximate
04:20PM -18.8230 167.1017 226° Southwest  Level FlightAware Approximate
04:21PM -18.8851 167.0335 226° Southwest  Level FlightAware Approximate
04:22PM -18.9473 166.9653 226° Southwest  Level FlightAware Approximate
04:23PM -19.0095 166.8971 226° Southwest  Level FlightAware Approximate
04:24PM -19.0716 166.8288 226° Southwest  Level FlightAware Approximate
04:25PM -19.1337 166.7604 226° Southwest  Level FlightAware Approximate
04:26PM -19.1957 166.6920 226° Southwest  Level FlightAware Approximate
04:27PM -19.2578 166.6236 226° Southwest  Level FlightAware Approximate
04:28PM -19.3198 166.5551 226° Southwest  Level FlightAware Approximate
04:29PM -19.3818 166.4865 226° Southwest  Level FlightAware Approximate
04:30PM -19.4438 166.4179 226° Southwest  Level FlightAware Approximate
04:31PM -19.5057 166.3493 226° Southwest  Level FlightAware Approximate
04:32PM -19.5676 166.2805 226° Southwest  Level FlightAware Approximate
04:33PM -19.6295 166.2118 226° Southwest  Level FlightAware Approximate
04:34PM -19.6914 166.1430 226° Southwest  Level FlightAware Approximate
04:35PM -19.7532 166.0741 226° Southwest  Level FlightAware Approximate
04:36PM -19.8150 166.0052 226° Southwest  Level FlightAware Approximate
04:37PM -19.8768 165.9362 226° Southwest  Level FlightAware Approximate
04:38PM -19.9386 165.8672 226° Southwest  Level FlightAware Approximate
04:39PM -20.0003 165.7981 226° Southwest  Level FlightAware Approximate
04:40PM -20.0620 165.7289 226° Southwest  Level FlightAware Approximate
04:41PM -20.1237 165.6597 226° Southwest  Level FlightAware Approximate
04:42PM -20.1853 165.5905 227° Southwest  Level FlightAware Approximate
04:43PM -20.2469 165.5212 227° Southwest  Level FlightAware Approximate
04:44PM -20.3085 165.4518 227° Southwest  Level FlightAware Approximate
04:45PM -20.3773 165.3905 212° Southwest  Level Estimated
04:46PM -20.4485 165.3325 217° Southwest  Level FlightAware Approximate
04:47PM -20.5196 165.2744 217° Southwest  Level FlightAware Approximate
04:48PM -20.5908 165.2162 217° Southwest  Level FlightAware Approximate
04:49PM -20.6619 165.1580 217° Southwest  Level FlightAware Approximate
04:50PM -20.7330 165.0998 217° Southwest  Level FlightAware Approximate
04:51PM -20.8041 165.0414 217° Southwest  Level FlightAware Approximate
04:52PM -20.8752 164.9831 218° Southwest  Level FlightAware Approximate
04:52PM -21.8949 163.6345 219° Southwest 38,000  Level Aus ATC (Calculated)
04:52PM -21.9377 163.5847 219° Southwest 38,000  Level Aus ATC (Calculated)
04:54PM -22.0490 163.4970 216° Southwest  Level FlightAware Approximate
04:55PM -22.1158 163.4443 216° Southwest  Level FlightAware Approximate
04:55PM -22.1898 163.2898 219° Southwest 38,000  Level Aus ATC (Calculated)
04:56PM -22.2278 163.2452 219° Southwest 38,000  Level Aus ATC (Calculated)
04:57PM -22.2949 163.1929 216° Southwest  Level FlightAware Approximate
04:58PM -22.3619 163.1405 216° Southwest  Level FlightAware Approximate
04:59PM -22.4289 163.0880 216° Southwest  Level FlightAware Approximate
04:59PM -22.4895 162.9371 218° Southwest 38,000  Level Aus ATC (Calculated)
05:01PM -22.6101 162.8438 216° Southwest  Level FlightAware Approximate
05:02PM -22.6771 162.7919 216° Southwest  Level FlightAware Approximate
05:03PM -22.7440 162.7399 216° Southwest  Level FlightAware Approximate
05:04PM -22.8110 162.6879 216° Southwest  Level FlightAware Approximate
05:05PM -22.8779 162.6359 216° Southwest  Level FlightAware Approximate
05:05PM -22.9542 162.3853 218° Southwest 38,000  Level Aus ATC (Calculated)
05:06PM -22.9448 162.5838 216° Southwest  Level FlightAware Approximate
05:07PM -23.0825 162.2879 215° Southwest  Level FlightAware Approximate
05:08PM -23.1500 162.2366 215° Southwest  Level FlightAware Approximate
05:09PM -23.2174 162.1853 215° Southwest  Level FlightAware Approximate
05:10PM -23.2849 162.1339 215° Southwest  Level FlightAware Approximate
05:11PM -23.3523 162.0824 215° Southwest  Level FlightAware Approximate
05:11PM -23.4706 161.7650 216° Southwest 38,000  Level Aus ATC (Calculated)
05:13PM -23.5854 161.6803 214° Southwest  Level FlightAware Approximate
05:14PM -23.6535 161.6299 214° Southwest  Level FlightAware Approximate
05:15PM -23.7216 161.5794 214° Southwest  Level FlightAware Approximate
05:16PM -23.7898 161.5289 214° Southwest  Level FlightAware Approximate
05:17PM -23.8579 161.4783 214° Southwest  Level FlightAware Approximate
05:18PM -23.9260 161.4276 214° Southwest  Level FlightAware Approximate
05:19PM -23.9941 161.3770 214° Southwest  Level FlightAware Approximate
05:20PM -24.0621 161.3262 214° Southwest  Level FlightAware Approximate
05:21PM -24.1302 161.2754 214° Southwest  Level FlightAware Approximate
05:22PM -24.1982 161.2246 214° Southwest  Level FlightAware Approximate
05:23PM -24.2662 161.1737 214° Southwest  Level FlightAware Approximate
05:24PM -24.3342 161.1227 214° Southwest  Level FlightAware Approximate
05:25PM -24.4022 161.0717 214° Southwest  Level FlightAware Approximate
05:26PM -24.4701 161.0207 214° Southwest  Level FlightAware Approximate
05:27PM -24.5381 160.9695 214° Southwest  Level FlightAware Approximate
05:28PM -24.6060 160.9184 214° Southwest  Level FlightAware Approximate
05:29PM -24.6739 160.8671 214° Southwest  Level FlightAware Approximate
05:30PM -24.7418 160.8159 214° Southwest  Level FlightAware Approximate
05:31PM -24.8097 160.7645 214° Southwest  Level FlightAware Approximate
05:32PM -24.8775 160.7131 214° Southwest  Level FlightAware Approximate
05:32PM -25.3352 159.8822 212° Southwest 38,000  Level Aus ATC (Calculated)
05:33PM -25.4059 159.8338 212° Southwest  Level FlightAware Approximate
05:33PM -25.5316 159.7475 212° Southwest 38,000  Level Aus ATC (Calculated)
05:34PM -25.5807 159.7138 212° Southwest 38,000  Level Aus ATC (Calculated)
05:34PM -25.6298 159.6800 212° Southwest 38,000  Level Aus ATC (Calculated)
05:36PM -25.7440 159.6013 212° Southwest  Level FlightAware Approximate
05:37PM -25.8140 159.5530 212° Southwest  Level FlightAware Approximate
05:38PM -25.8839 159.5047 212° Southwest  Level FlightAware Approximate
05:39PM -25.9538 159.4563 212° Southwest  Level FlightAware Approximate
05:40PM -26.0237 159.4079 212° Southwest  Level FlightAware Approximate
05:41PM -26.0935 159.3593 212° Southwest  Level FlightAware Approximate
05:41PM -26.3160 159.2045 212° Southwest 38,000  Level Aus ATC (Calculated)
05:42PM -26.1634 159.3108 212° Southwest  Level FlightAware Approximate
05:43PM -26.4544 159.1077 212° Southwest  Level FlightAware Approximate
05:44PM -26.5241 159.0588 212° Southwest  Level FlightAware Approximate
05:45PM -26.5939 159.0099 212° Southwest  Level FlightAware Approximate
05:46PM -26.6636 158.9609 212° Southwest  Level FlightAware Approximate
05:47PM -26.7333 158.9119 212° Southwest  Level FlightAware Approximate
05:48PM -26.8030 158.8628 212° Southwest  Level FlightAware Approximate
05:49PM -26.8727 158.8136 212° Southwest  Level FlightAware Approximate
05:50PM -26.9424 158.7644 212° Southwest  Level FlightAware Approximate
05:51PM -27.0120 158.7151 212° Southwest  Level FlightAware Approximate
05:52PM -27.0816 158.6657 212° Southwest  Level FlightAware Approximate
05:53PM -27.1513 158.6163 212° Southwest  Level FlightAware Approximate
05:54PM -27.2208 158.5668 212° Southwest  Level FlightAware Approximate
05:54PM -27.8293 158.1312 33° Northeast 38,000  Level Aus ATC (Calculated)
05:55PM -27.9266 158.0609 33° Northeast 38,000  Level Aus ATC (Calculated)
05:56PM -27.9149 158.0694 213° Southwest  Level FlightAware Approximate
05:57PM -28.0145 157.9973 213° Southwest  Level FlightAware Approximate
05:57PM -28.1212 157.9200 33° Northeast 38,000  Level Aus ATC (Calculated)
05:58PM -28.2184 157.8494 33° Northeast 38,000  Level Aus ATC (Calculated)
05:58PM -28.2670 157.8141 33° Northeast 38,000  Level Aus ATC (Calculated)
06:00PM -28.3418 157.7596 213° Southwest  Level FlightAware Approximate
06:01PM -28.4098 157.7099 213° Southwest  Level FlightAware Approximate
06:01PM -28.5098 157.6368 33° Northeast 38,000  Level Aus ATC (Calculated)
06:02PM -28.4778 157.6602 213° Southwest  Level FlightAware Approximate
06:03PM -28.6196 157.5563 213° Southwest  Level FlightAware Approximate
06:04PM -28.6876 157.5064 213° Southwest  Level FlightAware Approximate
06:05PM -28.7555 157.4565 213° Southwest  Level FlightAware Approximate
06:06PM -28.8234 157.4064 213° Southwest  Level FlightAware Approximate
06:06PM -27.6130 158.2870 213° Southwest 401 461 38,000  Level FlightAware
06:06PM -27.6640 158.2510 212° Southwest 402 463 38,000  Level FlightAware
06:06PM -29.1400 157.1720 33° Northeast 38,000  Level Aus ATC (Calculated)
06:07PM -27.7328 158.2043 212° Southwest 445 512 38,000  Level Aus ATC (RADAR)
06:07PM -27.7130 158.2160 212° Southwest 402 463 38,000  Level FlightAware
06:07PM -27.7620 158.1820 212° Southwest 402 463 38,000  Level FlightAware
06:08PM -27.8100 158.1470 213° Southwest 402 463 38,000  Level FlightAware
06:09PM -27.8580 158.1130 212° Southwest 402 463 38,000  Level FlightAware
06:09PM -27.9080 158.0780 212° Southwest 402 463 38,000  Level FlightAware
06:10PM -27.9560 158.0440 212° Southwest 402 463 38,000  Level FlightAware
06:11PM -28.0060 158.0090 212° Southwest 402 463 38,000  Level FlightAware
06:11PM -28.0540 157.9750 212° Southwest 402 463 38,000  Level FlightAware
06:12PM -28.1945 157.8663 212° Southwest 406 467 38,000  Level Aus ATC (RADAR)
06:12PM -28.1090 157.9360 212° Southwest 402 463 38,000  Level FlightAware
06:12PM -28.1570 157.9020 212° Southwest 402 463 38,000  Level FlightAware
06:13PM -28.2070 157.8670 212° Southwest 402 463 38,000  Level FlightAware
06:14PM -28.2520 157.8340 213° Southwest 402 463 38,000  Level FlightAware
06:14PM -28.3020 157.7990 212° Southwest 402 463 38,000  Level FlightAware
06:15PM -28.3500 157.7650 212° Southwest 402 463 38,000  Level FlightAware
06:15PM -28.3990 157.7300 212° Southwest 402 463 38,000  Level FlightAware
06:17PM -28.7120 157.4882 212° Southwest 407 468 38,000  Level Aus ATC (RADAR)
06:18PM -28.7514 157.4583 214° Southwest 409 471 38,000  Level Aus ATC (RADAR)
06:18PM -28.8103 157.4160 212° Southwest 418 481 38,000  Level Aus ATC (RADAR)
06:19PM -28.8930 157.3555 213° Southwest 424 488 38,000  Level Aus ATC (RADAR)
06:20PM -28.9499 157.3131 213° Southwest 421 484 38,000  Level Aus ATC (RADAR)
06:20PM -29.0240 157.2586 213° Southwest 422 486 38,000  Level Aus ATC (RADAR)
06:21PM -29.0643 157.2286 213° Southwest 419 482 38,000  Level Aus ATC (RADAR)
06:22PM -29.2045 157.1245 213° Southwest 427 491 38,000  Level Aus ATC (RADAR)
06:23PM -29.2465 157.0934 213° Southwest 429 494 38,000  Level Aus ATC (RADAR)
06:23PM -29.3049 157.0499 213° Southwest 430 495 38,000 -180 Level Aus ATC (RADAR)
06:24PM -29.3809 156.9930 213° Southwest 433 498 37,800 -180 Descending Aus ATC (RADAR)
06:25PM -29.4400 156.9489 213° Southwest 435 501 37,800  Level Aus ATC (RADAR)
06:25PM -29.5001 156.9040 213° Southwest 440 506 37,800 120 Level Aus ATC (RADAR)
06:26PM -29.5598 156.8587 213° Southwest 442 509 38,000  Climbing Aus ATC (RADAR)
06:27PM -29.6634 156.7811 213° Southwest 445 512 37,800 -120 Descending Aus ATC (RADAR)
06:27PM -29.7240 156.7355 213° Southwest 446 513 37,900 60 Climbing Aus ATC (RADAR)
06:28PM -29.7842 156.6899 213° Southwest 446 513 37,900 60 Level Aus ATC (RADAR)
06:29PM -29.8616 156.6318 213° Southwest 444 511 38,000  Climbing Aus ATC (RADAR)
06:29PM -29.9038 156.5999 213° Southwest 440 506 37,900 -240 Descending Aus ATC (RADAR)
06:30PM -29.9622 156.5554 213° Southwest 435 501 37,800  Descending Aus ATC (RADAR)
06:30PM -30.0376 156.4980 213° Southwest 434 499 37,900 60 Climbing Aus ATC (RADAR)
06:31PM -30.0961 156.4536 213° Southwest 433 498 37,900 60 Level Aus ATC (RADAR)
06:32PM -30.2046 156.3711 213° Southwest 432 497 38,000  Climbing Aus ATC (RADAR)
06:32PM -30.2463 156.3394 213° Southwest 432 497 37,900  Descending Aus ATC (RADAR)
06:33PM -30.2970 156.3010 213° Southwest 435 501 38,000 60 Climbing Aus ATC (RADAR)
06:34PM -30.3724 156.2431 213° Southwest 435 501 38,000  Level Aus ATC (RADAR)
06:34PM -30.4322 156.1973 214° Southwest 440 506 38,000  Level Aus ATC (RADAR)
06:35PM -30.4922 156.1511 214° Southwest 444 511 38,000  Level Aus ATC (RADAR)
06:35PM -30.5528 156.1047 213° Southwest 447 514 38,000  Level Aus ATC (RADAR)
06:36PM -30.6130 156.0584 214° Southwest 447 514 38,000  Level Aus ATC (RADAR)
06:37PM -30.7332 155.9657 214° Southwest 446 513 38,000  Level Aus ATC (RADAR)
06:37PM -30.7591 155.9457 214° Southwest 446 513 38,000 -120 Level Aus ATC (RADAR)
06:38PM -30.8189 155.8995 214° Southwest 444 511 37,900  Descending Aus ATC (RADAR)
06:39PM -30.9018 155.8513 207° Southwest 446 513 38,000  Climbing Aus ATC (RADAR)
06:39PM -30.9661 155.8155 205° Southwest 442 509 37,900  Descending Aus ATC (RADAR)
06:40PM -31.0298 155.7798 206° Southwest 439 505 38,000 60 Climbing Aus ATC (RADAR)
06:41PM -31.0937 155.7440 206° Southwest 438 504 38,000  Level Aus ATC (RADAR)
06:41PM -31.1577 155.7083 206° Southwest 438 504 38,000 -60 Level Aus ATC (RADAR)
06:42PM -31.3041 155.6261 206° Southwest 439 505 37,900  Descending Aus ATC (RADAR)
06:43PM -31.3497 155.6004 206° Southwest 439 505 38,000 60 Climbing Aus ATC (RADAR)
06:43PM -31.4139 155.5642 206° Southwest 440 506 38,000 -120 Level Aus ATC (RADAR)
06:44PM -31.4966 155.5176 206° Southwest 441 507 37,900  Descending Aus ATC (RADAR)
06:45PM -31.5607 155.4813 206° Southwest 441 507 38,000 60 Climbing Aus ATC (RADAR)
06:45PM -31.6247 155.4450 206° Southwest 439 505 38,000  Level Aus ATC (RADAR)
06:46PM -31.6885 155.4091 206° Southwest 436 502 38,000  Level Aus ATC (RADAR)
06:46PM -31.6970 155.4040 206° Southwest 436 502 38,000  Level FlightAware
06:47PM -31.7680 155.3640 206° Southwest 434 499 38,000  Level FlightAware
06:47PM -31.8310 155.3280 206° Southwest 433 498 38,000 -180 Level FlightAware
06:47PM -31.8417 155.3215 206° Southwest 433 498 37,900  Descending Aus ATC (RADAR)
06:48PM -31.8920 155.2930 206° Southwest 432 497 38,000 60 Climbing FlightAware
06:49PM -31.9680 155.2500 206° Southwest 437 503 38,000  Level FlightAware
06:49PM -32.0250 155.2170 206° Southwest 438 504 38,000  Level FlightAware
06:50PM -32.0910 155.1800 205° Southwest 438 504 38,000  Level FlightAware
06:50PM -32.1530 155.1440 206° Southwest 437 503 38,000  Level FlightAware
06:51PM -32.2140 155.1090 206° Southwest 437 503 38,000  Level FlightAware
06:52PM -32.2960 155.0620 206° Southwest 435 501 38,000  Level FlightAware
06:52PM -32.3560 155.0270 206° Southwest 436 502 38,000  Level FlightAware
06:53PM -32.4590 154.9676 206° Southwest 438 504 38,000  Level Aus ATC (RADAR)
06:53PM -32.4430 154.9770 206° Southwest 440 506 38,000 -180 Level FlightAware
06:54PM -32.5229 154.9306 206° Southwest 440 506 37,900  Descending Aus ATC (RADAR)
06:54PM -32.5140 154.9360 206° Southwest 442 509 38,000 180 Climbing FlightAware
06:54PM -32.5740 154.9010 206° Southwest 442 509 38,000  Level FlightAware
06:55PM -32.6430 154.8610 206° Southwest 443 510 38,000  Level FlightAware
06:55PM -32.6980 154.8290 206° Southwest 442 509 38,000  Level FlightAware
06:55PM -32.7161 154.8185 206° Southwest 441 507 38,000  Level Aus ATC (RADAR)
06:56PM -32.7670 154.7890 206° Southwest 439 505 38,000  Level FlightAware
06:57PM -32.8390 154.7470 206° Southwest 437 503 38,000  Level FlightAware
06:57PM -32.8930 154.7150 206° Southwest 437 503 38,000  Level FlightAware
06:58PM -32.9601 154.6756 206° Southwest 436 502 38,000  Level Aus ATC (RADAR)
06:58PM -32.9530 154.6800 206° Southwest 437 503 38,000  Level FlightAware
06:58PM -33.0250 154.6380 206° Southwest 436 502 38,000  Level FlightAware
06:59PM -33.0920 154.5990 206° Southwest 436 502 38,000  Level FlightAware
07:00PM -33.1470 154.5670 206° Southwest 436 502 38,000  Level FlightAware
07:00PM -33.2140 154.5270 207° Southwest 435 501 38,000  Level FlightAware
07:01PM -33.2760 154.4900 207° Southwest 435 501 38,000  Level FlightAware
07:01PM -33.3430 154.4510 206° Southwest 433 498 38,000  Level FlightAware
07:02PM -33.3990 154.4180 206° Southwest 432 497 38,000  Level FlightAware
07:02PM -33.4620 154.3810 206° Southwest 429 494 38,000  Level FlightAware
07:03PM -33.5430 154.3330 206° Southwest 428 493 38,000  Level FlightAware
07:04PM -33.5980 154.3000 207° Southwest 426 490 38,000  Level FlightAware
07:04PM -33.6640 154.2600 207° Southwest 426 490 38,000  Level FlightAware
07:05PM -33.7220 154.2250 207° Southwest 427 491 38,000  Level FlightAware
07:05PM -33.7900 154.1850 206° Southwest 429 494 38,000  Level FlightAware
07:06PM -33.8590 154.1440 206° Southwest 431 496 38,000  Level FlightAware
07:06PM -33.8880 154.1170 218° Southwest 416 479 38,000  Level FlightAware
07:07PM -33.9000 154.0970 234° Southwest 408 470 38,000  Level FlightAware
07:07PM -33.9110 154.0670 246° West 402 463 38,000  Level FlightAware
07:07PM -33.9160 154.0360 259° West 400 460 38,000  Level FlightAware
07:08PM -33.9250 153.9550 262° West 398 458 38,000  Level FlightAware
07:08PM -33.9300 153.8740 266° West 397 457 38,000  Level FlightAware
07:09PM -33.9340 153.8120 266° West 397 457 38,000 -420 Level FlightAware
07:09PM -33.9356 153.7980 266° West 379 436 37,800  Descending Aus ATC (RADAR)
07:09PM -33.9390 153.7250 266° West 397 457 38,000 120 Climbing FlightAware
07:10PM -33.9440 153.6580 265° West 399 459 38,000  Level FlightAware
07:11PM -33.9500 153.5660 265° West 400 460 38,000  Level FlightAware
07:11PM -33.9540 153.4970 266° West 401 461 38,000  Level FlightAware
07:12PM -33.9590 153.4140 266° West 401 461 38,000  Level FlightAware
07:12PM -33.9640 153.3440 265° West 402 463 38,000  Level FlightAware
07:13PM -33.9680 153.2610 267° West 403 464 38,000  Level FlightAware
07:13PM -33.9730 153.1830 266° West 404 465 38,000  Level FlightAware
07:14PM -33.9780 153.1060 266° West 405 466 38,000  Level FlightAware
07:15PM -33.9820 153.0370 266° West 404 465 38,000 -120 Level FlightAware
07:15PM -33.9866 152.9646 266° West 390 449 37,900  Descending Aus ATC (RADAR)
07:15PM -33.9870 152.9510 266° West 405 466 38,000 -840 Climbing FlightAware
07:16PM -33.9910 152.8700 267° West 395 455 37,300 -2,160 Descending FlightAware
07:16PM -33.9968 152.7885 267° West 386 444 35,500 -2,940 Descending Aus ATC (RADAR)
07:16PM -33.9960 152.7900 267° West 397 457 35,600 -2,940 Climbing FlightAware
07:17PM -34.0010 152.7140 265° West 404 465 33,700 -2,880 Descending FlightAware
07:17PM -34.0050 152.6380 266° West 397 457 32,300 -3,360 Descending FlightAware
07:18PM -34.0089 152.5663 266° West 394 453 30,200 -3,540 Descending Aus ATC (RADAR)
07:18PM -34.0090 152.5580 266° West 402 463 30,200 -3,360 Level FlightAware
07:19PM -34.0130 152.4760 267° West 411 473 27,800 -3,360 Descending FlightAware
07:19PM -34.0170 152.4090 266° West 398 458 26,400 -3,000 Descending FlightAware
07:20PM -34.0220 152.3227 266° West 380 437 24,500 -2,820 Descending Aus ATC (RADAR)
07:20PM -34.0220 152.3220 266° West 380 437 24,600 -2,160 Climbing FlightAware
07:20PM -34.0250 152.2610 266° West 366 421 23,300 -3,000 Descending FlightAware
07:20PM -34.0254 152.2503 266° West 366 421 23,000 -2,580 Descending Aus ATC (RADAR)
07:21PM -34.0280 152.1890 267° West 351 404 21,800 -2,220 Descending FlightAware
07:21PM -34.0310 152.1310 266° West 341 392 20,600 -2,400 Descending FlightAware
07:22PM -34.0310 152.0310 270° West 329 379 18,600 -2,520 Descending FlightAware
07:23PM -34.0247 151.9684 270° West 321 369 17,100 -2,220 Descending Aus ATC (RADAR)
07:23PM -34.0250 151.9710 270° West 327 376 17,300 -1,860 Climbing FlightAware
07:23PM -34.0190 151.9110 277° West 351 404 16,100 -2,520 Descending FlightAware
07:24PM -34.0120 151.8430 277° West 355 409 14,600 -2,520 Descending FlightAware
07:25PM -34.0060 151.7760 276° West 343 395 13,200 -2,580 Descending FlightAware
07:25PM -33.9986 151.7097 276° West 336 387 11,700 -2,400 Descending Aus ATC (RADAR)
07:25PM -33.9980 151.7090 276° West 337 388 11,800 -2,400 Climbing FlightAware
07:26PM -33.9918 151.6456 276° West 327 376 10,300 -2,280 Descending Aus ATC (RADAR)
07:26PM -33.9910 151.6410 276° West 327 376 10,400 -1,380 Climbing FlightAware
07:26PM -33.9880 151.6130 277° West 323 372 9,800 -2,400 Descending FlightAware
07:27PM -33.9840 151.5680 276° West 317 365 8,800 -2,400 Descending FlightAware
07:27PM -33.9800 151.5310 277° West 311 358 8,000 -2,100 Descending FlightAware
07:27PM -33.9760 151.4890 277° West 305 351 7,200 -2,040 Descending FlightAware
07:28PM -33.9720 151.4590 279° West 300 345 6,600 -1,320 Descending FlightAware
07:28PM -33.9690 151.4300 277° West 283 326 6,400 -600 Descending FlightAware
07:28PM -33.9810 151.3810 254° West 266 306 6,100 -540 Descending FlightAware
07:28PM -33.9850 151.3760 226° Southwest 268 308 6,100  Level FlightAware
07:29PM -33.9950 151.3670 217° Southwest 256 295 6,100 -300 Level FlightAware
07:29PM -34.0060 151.3610 204° Southwest 262 302 6,000 -720 Descending FlightAware
07:29PM -34.0220 151.3560 195° South 263 303 5,800 -1,080 Descending FlightAware
07:29PM -34.0410 151.3530 187° South 256 295 5,500 -1,380 Descending FlightAware
07:30PM -34.0660 151.3510 184° South 260 299 5,000 -1,380 Descending FlightAware
07:30PM -34.0820 151.3490 186° South 259 298 4,700 -1,200 Descending FlightAware
07:30PM -34.1060 151.3450 188° South 260 299 4,300 -1,200 Descending FlightAware
07:30PM -34.1130 151.3430 193° South 248 285 4,100 -1,200 Descending FlightAware
07:31PM -34.1230 151.3360 210° Southwest 244 281 3,900 -900 Descending FlightAware
07:31PM -34.1360 151.3020 245° Southwest 238 274 3,600 -780 Descending FlightAware
07:31PM -34.1380 151.2840 262° West 239 275 3,400 -840 Descending FlightAware
07:32PM -34.1340 151.2410 276° West 222 255 3,000 -720 Descending FlightAware
07:32PM -34.1310 151.2370 312° West 219 252 3,000 -420 Level FlightAware
07:32PM -34.1230 151.2290 320° Northwest 211 243 2,900 -480 Descending FlightAware
07:32PM -34.1120 151.2200 326° Northwest 197 227 2,800 -480 Descending FlightAware
07:32PM -34.1030 151.2160 340° North 193 222 2,700 -900 Descending FlightAware
07:33PM -34.0940 151.2140 350° North 189 217 2,500 -900 Descending FlightAware
07:33PM -34.0860 151.2120 348° North 182 209 2,400 -540 Descending FlightAware
07:33PM -34.0680 151.2080 350° North 171 197 2,200 -660 Descending FlightAware
07:33PM -34.0550 151.2040 346° North 166 191 2,000 -900 Descending FlightAware
07:34PM -34.0370 151.2000 350° North 163 188 1,600 -960 Descending FlightAware
07:34PM -34.0220 151.1960 348° North 161 185 1,300 -840 Descending FlightAware
07:35PM -34.0060 151.1920 348° North 161 185 1,000 -720 Descending FlightAware
07:35PM -33.9930 151.1880 346° North 148 170 800 -780 Descending FlightAware
07:35PM -33.9730 151.1830 348° North 133 153 400 -840 Descending FlightAware
07:36PM -33.9600 151.1800 349° North 136 157 200 -660 Descending FlightAware
07:36PM -33.9500 151.1770 346° North 90 104 -600 Descending FlightAware